Time,TemperatureF,DewpointF,PressureIn,WindDirection,WindDirectionDegrees,WindSpeedMPH,WindSpeedGustMPH,Humidity,HourlyPrecipIn,Conditions,Clouds,dailyrainin,SolarRadiationWatts/m^2,SoftwareType,DateUTC
2013-10-06 00:02:00,46.0,35.0,-100.00,ENE,73,0.0,0.0,65,0.00,,,0.00,0.000000,,2013-10-06 07:02:00,
2013-10-06 00:42:00,43.0,33.0,-100.00,SE,140,0.0,0.0,67,0.00,,,0.00,0.000000,,2013-10-06 07:42:00,
2013-10-06 00:52:00,43.0,33.0,-100.00,SE,140,0.0,0.0,67,0.00,,,0.00,0.000000,,2013-10-06 07:52:00,
2013-10-06 01:02:00,43.0,33.0,-100.00,SE,140,0.0,0.0,67,0.00,,,0.00,0.000000,,2013-10-06 08:02:00,
2013-10-06 01:42:00,44.0,35.0,-100.00,SE,141,0.0,0.0,70,0.00,,,0.00,0.000000,,2013-10-06 08:42:00,
2013-10-06 01:53:00,44.0,35.0,-100.00,SE,141,0.0,0.0,70,0.00,,,0.00,0.000000,,2013-10-06 08:53:00,
2013-10-06 02:01:00,44.0,35.0,-100.00,SE,141,0.0,0.0,70,0.00,,,0.00,0.000000,,2013-10-06 09:01:00,
2013-10-06 02:43:00,45.0,35.0,-100.00,ENE,78,0.0,0.0,69,0.00,,,0.00,0.000000,,2013-10-06 09:43:00,
2013-10-06 02:53:00,45.0,35.0,-100.00,ENE,78,0.0,0.0,69,0.00,,,0.00,0.000000,,2013-10-06 09:53:00,
2013-10-06 03:03:00,45.0,35.0,-100.00,ENE,78,0.0,0.0,69,0.00,,,0.00,0.000000,,2013-10-06 10:03:00,
2013-10-06 03:43:00,45.0,35.0,-100.00,East,85,0.0,0.0,68,0.00,,,0.00,0.000000,,2013-10-06 10:43:00,
2013-10-06 03:53:00,45.0,35.0,-100.00,East,85,0.0,0.0,68,0.00,,,0.00,0.000000,,2013-10-06 10:53:00,
2013-10-06 04:02:00,45.0,35.0,-100.00,East,85,0.0,0.0,68,0.00,,,0.00,0.000000,,2013-10-06 11:02:00,
2013-10-06 04:42:00,41.0,33.0,-100.00,SE,141,0.0,0.0,74,0.00,,,0.00,0.000000,,2013-10-06 11:42:00,
2013-10-06 04:52:00,41.0,33.0,-100.00,SE,141,0.0,0.0,74,0.00,,,0.00,0.000000,,2013-10-06 11:52:00,
2013-10-06 05:02:00,41.0,33.0,-100.00,SE,141,0.0,0.0,74,0.00,,,0.00,0.000000,,2013-10-06 12:02:00,
2013-10-06 05:42:00,41.0,34.0,-100.00,ESE,104,0.0,0.0,77,0.00,,,0.00,0.000000,,2013-10-06 12:42:00,
2013-10-06 05:52:00,41.0,34.0,-100.00,ESE,104,0.0,0.0,77,0.00,,,0.00,0.000000,,2013-10-06 12:52:00,
2013-10-06 06:02:00,41.0,34.0,-100.00,ESE,104,0.0,0.0,77,0.00,,,0.00,0.000000,,2013-10-06 13:02:00,
2013-10-06 06:42:00,41.0,36.0,-100.00,South,170,0.0,0.0,81,0.00,,,0.00,0.000000,,2013-10-06 13:42:00,
2013-10-06 06:52:00,41.0,36.0,-100.00,South,170,0.0,0.0,81,0.00,,,0.00,0.000000,,2013-10-06 13:52:00,
2013-10-06 07:02:00,41.0,36.0,-100.00,South,170,0.0,0.0,81,0.00,,,0.00,0.000000,,2013-10-06 14:02:00,
2013-10-06 07:42:00,39.0,35.0,-100.00,ESE,118,0.0,0.0,87,0.00,,,0.00,6.000000,,2013-10-06 14:42:00,
2013-10-06 07:52:00,39.0,35.0,-100.00,ESE,118,0.0,0.0,87,0.00,,,0.00,6.000000,,2013-10-06 14:52:00,
2013-10-06 08:02:00,39.0,35.0,-100.00,ESE,118,0.0,0.0,87,0.00,,,0.00,6.000000,,2013-10-06 15:02:00,
2013-10-06 08:44:00,47.0,38.0,-100.00,ESE,122,0.0,0.0,72,0.00,,,0.00,102.000000,,2013-10-06 15:44:00,
2013-10-06 08:54:00,47.0,38.0,-100.00,ESE,122,0.0,0.0,72,0.00,,,0.00,102.000000,,2013-10-06 15:54:00,
2013-10-06 09:03:00,47.0,38.0,-100.00,ESE,122,0.0,0.0,72,0.00,,,0.00,102.000000,,2013-10-06 16:03:00,
2013-10-06 09:43:00,53.0,36.0,-100.00,ENE,66,0.0,0.0,53,0.00,,,0.00,384.000000,,2013-10-06 16:43:00,
2013-10-06 09:53:00,53.0,36.0,-100.00,ENE,66,0.0,0.0,53,0.00,,,0.00,384.000000,,2013-10-06 16:53:00,
2013-10-06 10:02:00,53.0,36.0,-100.00,ENE,66,0.0,0.0,53,0.00,,,0.00,384.000000,,2013-10-06 17:02:00,
2013-10-06 10:42:00,55.0,38.0,-100.00,NE,45,0.0,0.0,52,0.00,,,0.00,501.000000,,2013-10-06 17:42:00,
2013-10-06 10:52:00,55.0,38.0,-100.00,NE,45,0.0,0.0,52,0.00,,,0.00,501.000000,,2013-10-06 17:52:00,
2013-10-06 11:01:00,55.0,38.0,-100.00,NE,45,0.0,0.0,52,0.00,,,0.00,501.000000,,2013-10-06 18:01:00,
2013-10-06 11:43:00,58.0,40.0,-100.00,East,83,0.0,3.0,52,0.00,,,0.00,696.000000,,2013-10-06 18:43:00,
2013-10-06 11:52:00,58.0,40.0,-100.00,East,83,0.0,3.0,52,0.00,,,0.00,696.000000,,2013-10-06 18:52:00,
2013-10-06 12:01:00,58.0,40.0,-100.00,East,83,0.0,3.0,52,0.00,,,0.00,696.000000,,2013-10-06 19:01:00,
2013-10-06 12:42:00,64.0,43.0,-100.00,South,182,0.0,5.0,46,0.00,,,0.00,808.000000,,2013-10-06 19:42:00,
2013-10-06 12:53:00,64.0,43.0,-100.00,South,182,0.0,5.0,46,0.00,,,0.00,808.000000,,2013-10-06 19:53:00,
2013-10-06 13:02:00,64.0,43.0,-100.00,South,182,0.0,5.0,46,0.00,,,0.00,808.000000,,2013-10-06 20:02:00,
2013-10-06 13:42:00,64.0,42.0,-100.00,SW,233,2.0,5.0,44,0.00,,,0.00,667.000000,,2013-10-06 20:42:00,
2013-10-06 13:52:00,64.0,42.0,-100.00,SW,233,2.0,5.0,44,0.00,,,0.00,667.000000,,2013-10-06 20:52:00,
2013-10-06 14:01:00,64.0,42.0,-100.00,SW,233,2.0,5.0,44,0.00,,,0.00,667.000000,,2013-10-06 21:01:00,
2013-10-06 14:44:00,68.0,43.0,-100.00,WSW,249,3.0,8.0,41,0.00,,,0.00,770.000000,,2013-10-06 21:44:00,
2013-10-06 14:54:00,68.0,43.0,-100.00,WSW,249,3.0,8.0,41,0.00,,,0.00,770.000000,,2013-10-06 21:54:00,
2013-10-06 15:03:00,68.0,43.0,-100.00,WSW,249,3.0,8.0,41,0.00,,,0.00,770.000000,,2013-10-06 22:03:00,
2013-10-06 15:43:00,67.0,41.0,-100.00,West,278,2.0,7.0,39,0.00,,,0.00,661.000000,,2013-10-06 22:43:00,
2013-10-06 15:53:00,67.0,41.0,-100.00,West,278,2.0,7.0,39,0.00,,,0.00,661.000000,,2013-10-06 22:53:00,
2013-10-06 16:03:00,67.0,41.0,-100.00,West,278,2.0,7.0,39,0.00,,,0.00,661.000000,,2013-10-06 23:03:00,
2013-10-06 16:42:00,66.0,42.0,-100.00,WSW,246,3.0,6.0,41,0.00,,,0.00,497.000000,,2013-10-06 23:42:00,
2013-10-06 16:53:00,66.0,42.0,-100.00,WSW,246,3.0,6.0,41,0.00,,,0.00,497.000000,,2013-10-06 23:53:00,
2013-10-06 17:02:00,66.0,42.0,-100.00,WSW,246,3.0,6.0,41,0.00,,,0.00,497.000000,,2013-10-07 00:02:00,
2013-10-06 17:42:00,67.0,43.0,-100.00,SW,219,0.0,7.0,42,0.00,,,0.00,294.000000,,2013-10-07 00:42:00,
2013-10-06 17:52:00,67.0,43.0,-100.00,SW,219,0.0,7.0,42,0.00,,,0.00,294.000000,,2013-10-07 00:52:00,
2013-10-06 18:02:00,67.0,43.0,-100.00,SW,219,0.0,7.0,42,0.00,,,0.00,294.000000,,2013-10-07 01:02:00,
2013-10-06 18:42:00,55.0,42.0,-100.00,WSW,257,0.0,5.0,61,0.00,,,0.00,18.000000,,2013-10-07 01:42:00,
2013-10-06 18:53:00,55.0,42.0,-100.00,WSW,257,0.0,5.0,61,0.00,,,0.00,18.000000,,2013-10-07 01:53:00,
2013-10-06 19:02:00,55.0,42.0,-100.00,WSW,257,0.0,5.0,61,0.00,,,0.00,18.000000,,2013-10-07 02:02:00,
2013-10-06 19:42:00,51.0,44.0,-100.00,East,80,0.0,3.0,77,0.00,,,-99.99,0.000000,,2013-10-07 02:42:00,
2013-10-06 19:53:00,51.0,44.0,-100.00,East,80,0.0,3.0,77,0.00,,,-99.99,0.000000,,2013-10-07 02:53:00,
2013-10-06 20:02:00,51.0,44.0,-100.00,East,80,0.0,3.0,77,0.00,,,-99.99,0.000000,,2013-10-07 03:02:00,
2013-10-06 20:44:00,49.0,39.0,-100.00,WSW,250,0.0,3.0,67,0.00,,,0.00,0.000000,,2013-10-07 03:44:00,
2013-10-06 20:54:00,49.0,39.0,-100.00,WSW,250,0.0,3.0,67,0.00,,,0.00,0.000000,,2013-10-07 03:54:00,
2013-10-06 21:04:00,49.0,39.0,-100.00,WSW,250,0.0,3.0,67,0.00,,,0.00,0.000000,,2013-10-07 04:04:00,
2013-10-06 21:44:00,47.0,37.0,-100.00,NNW,343,0.0,4.0,67,0.00,,,-99.99,0.000000,,2013-10-07 04:44:00,
2013-10-06 21:53:00,47.0,37.0,-100.00,NNW,343,0.0,4.0,67,0.00,,,-99.99,0.000000,,2013-10-07 04:53:00,
2013-10-06 22:03:00,47.0,37.0,-100.00,NNW,343,0.0,4.0,67,0.00,,,-99.99,0.000000,,2013-10-07 05:03:00,
2013-10-06 22:43:00,46.0,35.0,-100.00,SW,236,0.0,4.0,65,0.00,,,0.00,0.000000,,2013-10-07 05:43:00,
2013-10-06 22:52:00,46.0,35.0,-100.00,SW,236,0.0,4.0,65,0.00,,,0.00,0.000000,,2013-10-07 05:52:00,
2013-10-06 23:03:00,46.0,35.0,-100.00,SW,236,0.0,4.0,65,0.00,,,0.00,0.000000,,2013-10-07 06:03:00,
2013-10-06 23:42:00,48.0,34.0,-100.00,ESE,114,1.0,10.0,58,0.00,,,0.00,0.000000,,2013-10-07 06:42:00,
2013-10-06 23:52:00,48.0,34.0,-100.00,ESE,114,1.0,10.0,58,0.00,,,0.00,0.000000,,2013-10-07 06:52:00,